Time;durP1;ratioP1;P1;durP2;ratioP2;P2;SDS_P1;SDS_P2;PMS_P1;PMS_P2;Temp;Humidity;BMP_temperature;BMP_pressure;BME280_temperature;BME280_humidity;BME280_pressure;Samples;Min_cycle;Max_cycle;Signal;HPM_P1;HPM_P2
2023/12/27 00:01:06;;;;;;;;;;;;;;;19.36;57.91;100903.03;7394597;19;1145;-50
2023/12/27 00:03:35;;;;;;;;;;;;;;;19.55;57.42;100890.69;7394933;19;1831;-50
2023/12/27 00:06:04;;;;;;;;;;;;;;;19.63;57.06;100906.94;7394840;19;1879;-50
2023/12/27 00:08:32;;;;;;;;;;;;;;;19.62;57.14;100895.38;7393568;19;1868;-50
2023/12/27 00:11:03;;;;;;;;;;;;;;;19.63;57.26;100906.94;7395848;19;1739;-50
2023/12/27 00:13:31;;;;;;;;;;;;;;;19.62;57.30;100921.34;7394287;19;1408;-50
2023/12/27 00:16:00;;;;;;;;;;;;;;;19.65;57.10;100918.38;7394825;19;1673;-51
2023/12/27 00:18:28;;;;;;;;;;;;;;;19.72;57.16;100919.59;7393835;19;1433;-51
2023/12/27 00:20:56;;;;;;;;;;;;;;;19.63;57.27;100925.72;7393379;19;1846;-50
2023/12/27 00:23:25;;;;;;;;;;;;;;;19.50;57.59;100925.09;7394914;19;1784;-50
2023/12/27 00:25:53;;;;;;;;;;;;;;;19.12;58.56;100915.88;7396151;19;1411;-50
2023/12/27 00:28:24;;;;;;;;;;;;;;;18.92;58.88;100931.88;7393852;19;1839;-50
2023/12/27 00:30:52;;;;;;;;;;;;;;;18.89;59.40;100932.13;7394714;19;1768;-50
2023/12/27 00:33:21;;;;;;;;;;;;;;;18.93;59.30;100956.84;7395172;19;1315;-50
2023/12/27 00:35:49;;;;;;;;;;;;;;;18.88;59.21;100936.63;7393556;19;1323;-50
2023/12/27 00:38:17;;;;;;;;;;;;;;;18.90;59.43;100949.91;7394880;19;1420;-50
2023/12/27 00:40:46;;;;;;;;;;;;;;;19.10;59.07;100936.59;7379563;19;1185;-50
2023/12/27 00:43:14;;;;;;;;;;;;;;;19.45;57.68;100945.13;7392176;19;1429;-50
2023/12/27 00:45:45;;;;;;;;;;;;;;;19.63;57.09;100941.81;7393682;19;1834;-50
2023/12/27 00:48:13;;;;;;;;;;;;;;;19.80;56.82;100953.78;7390587;19;1557;-51
2023/12/27 00:50:42;;;;;;;;;;;;;;;19.75;56.81;100964.06;7389931;19;1845;-50
2023/12/27 00:53:10;;;;;;;;;;;;;;;19.70;56.82;100955.56;7391411;19;1633;-50
2023/12/27 00:55:38;;;;;;;;;;;;;;;19.73;56.80;100964.19;7392958;19;1338;-50
2023/12/27 00:58:07;;;;;;;;;;;;;;;19.71;57.15;100959.94;7392862;19;1483;-50
2023/12/27 01:00:35;;;;;;;;;;;;;;;19.75;56.81;100964.91;7392913;19;1476;-50
2023/12/27 01:03:06;;;;;;;;;;;;;;;19.74;57.01;100971.28;7392536;19;1768;-50
2023/12/27 01:05:35;;;;;;;;;;;;;;;19.75;57.02;100972.97;7392610;19;1113;-50
2023/12/27 01:08:03;;;;;;;;;;;;;;;19.81;56.84;100948.25;7392398;19;1477;-50
2023/12/27 01:10:32;;;;;;;;;;;;;;;19.35;58.01;100980.94;7390990;19;1914;-50
2023/12/27 01:13:00;;;;;;;;;;;;;;;19.08;58.67;100974.28;7391416;19;1480;-50
2023/12/27 01:15:28;;;;;;;;;;;;;;;18.98;59.10;100976.91;7390827;19;1351;-50
2023/12/27 01:17:57;;;;;;;;;;;;;;;19.03;59.13;100966.63;7391023;19;1796;-51
2023/12/27 01:20:28;;;;;;;;;;;;;;;18.94;59.11;100969.22;7392447;19;1767;-50
2023/12/27 01:22:56;;;;;;;;;;;;;;;18.90;59.30;100965.13;7391591;19;1429;-50
2023/12/27 01:25:24;;;;;;;;;;;;;;;18.91;59.13;100969.50;7396555;19;1094;-50
2023/12/27 01:27:53;;;;;;;;;;;;;;;18.90;59.12;100970.47;7399490;19;1910;-50
2023/12/27 01:30:21;;;;;;;;;;;;;;;19.31;58.23;100960.72;7397442;19;1851;-51
2023/12/27 01:32:49;;;;;;;;;;;;;;;19.50;57.62;100962.66;7397770;19;1926;-50
2023/12/27 01:35:18;;;;;;;;;;;;;;;19.66;57.07;100976.44;7399915;19;1388;-50
2023/12/27 01:37:49;;;;;;;;;;;;;;;19.70;56.88;100980.56;7399661;19;1307;-50
2023/12/27 01:40:18;;;;;;;;;;;;;;;19.73;57.04;100974.94;7385293;19;1011;-50
2023/12/27 01:42:46;;;;;;;;;;;;;;;19.68;56.95;100975.31;7397156;19;1489;-50
2023/12/27 01:45:14;;;;;;;;;;;;;;;19.77;56.94;100984.41;7397050;19;1752;-50
2023/12/27 01:47:43;;;;;;;;;;;;;;;19.46;57.54;100991.59;7398391;19;1330;-50
2023/12/27 01:50:12;;;;;;;;;;;;;;;19.11;58.72;100998.13;7396020;19;1853;-50
2023/12/27 01:52:41;;;;;;;;;;;;;;;19.08;58.70;100999.25;7396778;19;1105;-50
2023/12/27 01:55:13;;;;;;;;;;;;;;;19.02;58.93;100997.09;7398992;19;1666;-50
2023/12/27 01:57:41;;;;;;;;;;;;;;;18.99;59.08;101012.59;7399728;19;1014;-50
2023/12/27 02:00:10;;;;;;;;;;;;;;;18.90;59.29;101018.72;7399107;19;1043;-50
2023/12/27 02:02:40;;;;;;;;;;;;;;;18.85;59.27;101013.75;7398753;19;2007;-50
2023/12/27 02:05:08;;;;;;;;;;;;;;;18.86;59.40;101039.53;7397956;19;1856;-50
2023/12/27 02:07:38;;;;;;;;;;;;;;;19.35;58.14;101003.22;7397650;19;1484;-52
2023/12/27 02:10:07;;;;;;;;;;;;;;;19.53;57.42;100994.56;7396139;19;1899;-50
2023/12/27 02:12:38;;;;;;;;;;;;;;;19.75;57.05;100986.38;7397860;19;1597;-51
2023/12/27 02:15:07;;;;;;;;;;;;;;;19.68;57.01;101009.34;7397827;19;1359;-50
2023/12/27 02:17:36;;;;;;;;;;;;;;;19.64;57.30;101003.41;7397707;19;1632;-50
2023/12/27 02:20:04;;;;;;;;;;;;;;;19.73;57.09;101001.75;7397010;19;1385;-50
2023/12/27 02:22:34;;;;;;;;;;;;;;;19.62;57.15;100993.78;7397804;19;1318;-51
2023/12/27 02:25:06;;;;;;;;;;;;;;;19.25;58.14;101011.22;7397368;19;1663;-50
2023/12/27 02:27:34;;;;;;;;;;;;;;;19.08;58.59;100988.53;7399048;19;994;-50
2023/12/27 02:30:02;;;;;;;;;;;;;;;19.03;59.09;101003.31;7393316;19;1840;-50
2023/12/27 02:32:31;;;;;;;;;;;;;;;19.01;58.78;101011.47;7397733;19;1455;-50
2023/12/27 02:34:59;;;;;;;;;;;;;;;18.95;59.20;101014.66;7397154;19;1667;-49
2023/12/27 02:37:28;;;;;;;;;;;;;;;18.96;59.18;101013.72;7397842;19;1230;-50
2023/12/27 02:39:59;;;;;;;;;;;;;;;18.90;59.22;101000.81;7384156;19;1019;-50
2023/12/27 02:42:29;;;;;;;;;;;;;;;18.89;59.33;101001.78;7397315;19;1591;-49
2023/12/27 02:44:58;;;;;;;;;;;;;;;18.88;59.25;100984.88;7396386;19;1856;-50
2023/12/27 02:47:26;;;;;;;;;;;;;;;18.85;59.43;100995.00;7396460;19;1795;-49
2023/12/27 02:49:54;;;;;;;;;;;;;;;19.43;58.07;101005.25;7395693;19;1839;-50
2023/12/27 02:52:23;;;;;;;;;;;;;;;19.60;57.25;100998.44;7395063;19;1376;-49
2023/12/27 02:54:51;;;;;;;;;;;;;;;19.71;57.26;101022.50;7397765;19;1093;-50
2023/12/27 02:57:20;;;;;;;;;;;;;;;19.82;56.77;101005.50;7397180;19;1925;-50
2023/12/27 02:59:51;;;;;;;;;;;;;;;19.77;56.92;101013.09;7396995;19;1844;-50
2023/12/27 03:02:19;;;;;;;;;;;;;;;19.32;58.01;101008.00;7393060;19;1723;-49
2023/12/27 03:04:47;;;;;;;;;;;;;;;19.04;58.82;101007.69;7396052;19;1516;-50
2023/12/27 03:07:16;;;;;;;;;;;;;;;19.00;59.00;101014.28;7396841;19;1378;-50
2023/12/27 03:09:44;;;;;;;;;;;;;;;18.96;59.16;101016.38;7396461;19;1928;-50
2023/12/27 03:12:12;;;;;;;;;;;;;;;18.93;59.21;101019.31;7393897;19;1597;-50
2023/12/27 03:14:41;;;;;;;;;;;;;;;18.90;59.19;101010.66;7395259;19;1669;-49
2023/12/27 03:17:11;;;;;;;;;;;;;;;18.85;59.18;101016.44;7396388;19;1247;-50
2023/12/27 03:19:40;;;;;;;;;;;;;;;18.86;59.15;101010.06;7396921;19;1062;-50
2023/12/27 03:22:08;;;;;;;;;;;;;;;19.41;58.05;101021.47;7397269;19;986;-50
2023/12/27 03:24:37;;;;;;;;;;;;;;;19.64;57.23;101013.28;7395430;19;1904;-49
2023/12/27 03:27:05;;;;;;;;;;;;;;;19.76;56.99;101030.19;7395082;19;1512;-49
2023/12/27 03:29:33;;;;;;;;;;;;;;;19.73;56.96;101028.59;7395816;19;1848;-50
2023/12/27 03:32:02;;;;;;;;;;;;;;;19.70;56.95;101036.06;7395313;19;1681;-50
2023/12/27 03:34:33;;;;;;;;;;;;;;;19.31;57.87;101028.59;7396272;19;1043;-49
2023/12/27 03:37:02;;;;;;;;;;;;;;;19.02;58.77;101010.50;7395758;19;1066;-50
2023/12/27 03:39:30;;;;;;;;;;;;;;;18.97;59.13;101038.66;7380871;19;1778;-50
2023/12/27 03:41:58;;;;;;;;;;;;;;;18.99;58.97;101045.59;7392905;19;1929;-50
2023/12/27 03:44:26;;;;;;;;;;;;;;;19.02;58.71;101034.63;7395145;19;1346;-50
2023/12/27 03:46:55;;;;;;;;;;;;;;;18.98;58.94;101043.91;7395513;19;994;-50
2023/12/27 03:49:23;;;;;;;;;;;;;;;18.94;58.94;101039.78;7394529;19;1776;-50
2023/12/27 03:51:54;;;;;;;;;;;;;;;18.93;59.28;101046.09;7390911;19;1851;-50
2023/12/27 03:54:23;;;;;;;;;;;;;;;19.20;58.61;101047.44;7394438;19;1864;-50
2023/12/27 03:56:52;;;;;;;;;;;;;;;19.50;57.44;101043.13;7395469;19;1795;-50
2023/12/27 03:59:20;;;;;;;;;;;;;;;19.76;57.15;101059.69;7394619;19;1804;-50
2023/12/27 04:01:48;;;;;;;;;;;;;;;19.19;58.19;101072.56;7394603;19;1569;-50
2023/12/27 04:04:18;;;;;;;;;;;;;;;18.88;59.03;101064.41;7393911;19;1741;-50
2023/12/27 04:06:46;;;;;;;;;;;;;;;18.78;59.25;101085.72;7393079;19;1464;-50
2023/12/27 04:09:17;;;;;;;;;;;;;;;18.71;59.43;101063.09;7393081;19;1981;-50
2023/12/27 04:11:46;;;;;;;;;;;;;;;18.64;59.78;101060.06;7392669;19;1855;-53
2023/12/27 04:14:17;;;;;;;;;;;;;;;18.64;59.62;101085.97;7394535;19;1101;-50
2023/12/27 04:16:45;;;;;;;;;;;;;;;18.39;60.24;101082.63;7394431;19;1811;-50
2023/12/27 04:19:14;;;;;;;;;;;;;;;18.35;60.26;101096.41;7394085;19;2055;-50
2023/12/27 04:21:43;;;;;;;;;;;;;;;18.28;60.48;101085.31;7392670;19;1528;-50
2023/12/27 04:24:11;;;;;;;;;;;;;;;18.33;60.42;101090.31;7393598;19;1385;-50
2023/12/27 04:26:43;;;;;;;;;;;;;;;18.25;60.64;101097.13;7393858;19;1678;-50
2023/12/27 04:29:11;;;;;;;;;;;;;;;18.26;60.54;101122.06;7394988;19;973;-50
2023/12/27 04:31:40;;;;;;;;;;;;;;;18.16;60.70;101099.69;7393155;19;1877;-50
2023/12/27 04:34:08;;;;;;;;;;;;;;;18.14;60.89;101102.47;7394038;19;1780;-50
2023/12/27 04:36:37;;;;;;;;;;;;;;;18.14;60.87;101106.97;7393244;19;1489;-50
2023/12/27 04:39:06;;;;;;;;;;;;;;;18.06;60.80;101104.91;7394827;19;1684;-50
2023/12/27 04:41:34;;;;;;;;;;;;;;;18.07;60.77;101111.97;7379278;19;1066;-50
2023/12/27 04:44:05;;;;;;;;;;;;;;;18.13;60.81;101121.34;7393255;19;1714;-50
2023/12/27 04:46:33;;;;;;;;;;;;;;;18.06;60.66;101108.44;7392609;19;1833;-50
2023/12/27 04:49:00;;;;;;;;;;;;;;;18.11;60.53;101118.78;7392688;19;1766;-50
2023/12/27 04:51:29;;;;;;;;;;;;;;;18.14;60.42;101134.59;7390572;19;1854;-50
2023/12/27 04:53:57;;;;;;;;;;;;;;;18.13;60.41;101151.63;7391880;19;1390;-50
2023/12/27 04:56:25;;;;;;;;;;;;;;;18.03;60.59;101142.63;7393101;19;1727;-50
2023/12/27 04:58:53;;;;;;;;;;;;;;;17.99;60.80;101158.06;7389833;19;1764;-50
2023/12/27 05:01:24;;;;;;;;;;;;;;;17.94;61.08;101165.59;7392319;19;1661;-50
2023/12/27 05:03:53;;;;;;;;;;;;;;;17.78;60.76;101131.09;7390638;19;1322;-50
2023/12/27 05:06:21;;;;;;;;;;;;;;;17.92;60.95;101172.88;7392910;19;1724;-50
2023/12/27 05:08:49;;;;;;;;;;;;;;;17.93;60.96;101174.59;7392393;19;1940;-50
2023/12/27 05:11:19;;;;;;;;;;;;;;;17.95;60.78;101178.00;7392244;19;1857;-52
2023/12/27 05:13:48;;;;;;;;;;;;;;;17.94;61.03;101187.00;7392452;19;1840;-50
2023/12/27 05:16:17;;;;;;;;;;;;;;;17.79;61.41;101175.63;7391947;19;1429;-50
2023/12/27 05:18:48;;;;;;;;;;;;;;;17.96;61.10;101173.50;7392859;19;1243;-50
2023/12/27 05:21:17;;;;;;;;;;;;;;;17.91;60.94;101181.03;7391842;19;1353;-50
2023/12/27 05:23:45;;;;;;;;;;;;;;;18.00;60.72;101180.31;7391355;19;1382;-50
2023/12/27 05:26:14;;;;;;;;;;;;;;;17.98;60.55;101192.97;7391410;19;1671;-50
2023/12/27 05:28:43;;;;;;;;;;;;;;;17.97;60.72;101201.97;7392242;19;1007;-50
2023/12/27 05:31:11;;;;;;;;;;;;;;;17.89;60.94;101179.31;7391170;19;1922;-50
2023/12/27 05:33:40;;;;;;;;;;;;;;;17.84;61.03;101188.66;7391179;19;1838;-50
2023/12/27 05:36:11;;;;;;;;;;;;;;;17.96;60.73;101200.25;7390875;19;1838;-50
2023/12/27 05:38:39;;;;;;;;;;;;;;;17.75;61.35;101219.63;7391291;19;1819;-50
2023/12/27 05:41:08;;;;;;;;;;;;;;;17.74;61.41;101219.75;7376663;19;1125;-50
2023/12/27 05:43:37;;;;;;;;;;;;;;;17.78;61.19;101222.06;7390571;19;1769;-50
2023/12/27 05:46:05;;;;;;;;;;;;;;;17.84;61.26;101220.78;7391582;19;1488;-49
2023/12/27 05:48:33;;;;;;;;;;;;;;;17.74;61.51;101241.97;7391119;19;1748;-50
2023/12/27 05:51:02;;;;;;;;;;;;;;;17.74;61.31;101250.00;7389301;19;1875;-50
2023/12/27 05:53:33;;;;;;;;;;;;;;;17.72;61.37;101233.22;7390042;19;1726;-50
2023/12/27 05:56:02;;;;;;;;;;;;;;;17.75;61.28;101235.69;7390485;19;1381;-50
2023/12/27 05:58:31;;;;;;;;;;;;;;;17.67;61.36;101238.94;7389145;19;1330;-50
2023/12/27 06:00:59;;;;;;;;;;;;;;;17.77;61.06;101233.75;7390912;19;1273;-50
2023/12/27 06:03:28;;;;;;;;;;;;;;;17.91;60.70;101255.97;7389943;19;2040;-50
2023/12/27 06:05:56;;;;;;;;;;;;;;;17.86;60.77;101257.13;7391995;19;1039;-50
2023/12/27 06:08:24;;;;;;;;;;;;;;;17.83;60.95;101254.72;7390082;19;1823;-50
2023/12/27 06:10:55;;;;;;;;;;;;;;;17.72;61.36;101253.78;7392305;19;1885;-50
2023/12/27 06:13:24;;;;;;;;;;;;;;;17.76;61.03;101253.41;7397002;19;1555;-51
2023/12/27 06:15:54;;;;;;;;;;;;;;;17.85;61.18;101266.16;7397168;19;1758;-51
2023/12/27 06:18:22;;;;;;;;;;;;;;;17.74;61.22;101283.94;7397559;19;1598;-51
2023/12/27 06:20:50;;;;;;;;;;;;;;;17.77;61.13;101287.25;7398413;19;1752;-51
2023/12/27 06:23:18;;;;;;;;;;;;;;;17.82;60.80;101289.56;7398001;19;1752;-50
2023/12/27 06:25:47;;;;;;;;;;;;;;;17.83;61.19;101286.81;7398206;19;1215;-50
2023/12/27 06:28:18;;;;;;;;;;;;;;;17.84;60.98;101293.84;7398580;19;1129;-50
2023/12/27 06:30:47;;;;;;;;;;;;;;;17.74;60.99;101270.56;7395598;19;1857;-50
2023/12/27 06:33:15;;;;;;;;;;;;;;;17.70;61.27;101276.13;7397437;19;1651;-50
2023/12/27 06:35:43;;;;;;;;;;;;;;;17.65;61.12;101272.97;7396381;19;1712;-50
2023/12/27 06:38:12;;;;;;;;;;;;;;;17.70;61.31;101291.34;7396075;19;1472;-50
2023/12/27 06:40:40;;;;;;;;;;;;;;;17.73;61.24;101293.78;7384411;19;1017;-50
2023/12/27 06:43:08;;;;;;;;;;;;;;;17.86;61.08;101299.09;7397880;19;1657;-50
2023/12/27 06:45:40;;;;;;;;;;;;;;;17.74;61.34;101295.47;7392960;19;1384;-50
2023/12/27 06:48:09;;;;;;;;;;;;;;;17.87;60.78;101309.69;7396226;19;1673;-50
2023/12/27 06:50:37;;;;;;;;;;;;;;;17.71;60.92;101295.72;7394794;19;1846;-50
2023/12/27 06:53:06;;;;;;;;;;;;;;;17.77;60.69;101310.47;7395377;19;1333;-50
2023/12/27 06:55:34;;;;;;;;;;;;;;;17.77;60.87;101316.66;7395956;19;1447;-50
2023/12/27 06:58:03;;;;;;;;;;;;;;;17.83;60.74;101324.28;7397321;19;1023;-50
2023/12/27 07:00:31;;;;;;;;;;;;;;;17.87;60.60;101323.06;7395042;19;1519;-50
2023/12/27 07:03:02;;;;;;;;;;;;;;;17.79;60.70;101333.47;7396402;19;1748;-50
2023/12/27 07:05:30;;;;;;;;;;;;;;;17.62;61.08;101325.81;7394690;19;1749;-50
2023/12/27 07:07:59;;;;;;;;;;;;;;;17.81;60.79;101320.81;7394895;19;1786;-51
2023/12/27 07:10:27;;;;;;;;;;;;;;;18.43;59.38;101340.31;7393463;19;1770;-50
2023/12/27 07:12:55;;;;;;;;;;;;;;;18.16;60.14;101345.94;7393828;19;1833;-50
2023/12/27 07:15:24;;;;;;;;;;;;;;;17.80;60.89;101343.19;7395313;19;1381;-50
2023/12/27 07:17:52;;;;;;;;;;;;;;;17.84;60.61;101342.00;7395674;19;1452;-50
2023/12/27 07:20:24;;;;;;;;;;;;;;;17.87;60.74;101351.66;7395902;19;1708;-50
2023/12/27 07:22:52;;;;;;;;;;;;;;;17.75;60.61;101344.50;7394296;19;1911;-50
2023/12/27 07:25:20;;;;;;;;;;;;;;;17.72;61.21;101358.94;7396360;19;1747;-50
2023/12/27 07:27:49;;;;;;;;;;;;;;;17.78;60.89;101361.16;7395134;19;1508;-50
2023/12/27 07:30:17;;;;;;;;;;;;;;;17.80;60.82;101361.91;7394574;19;1757;-50
2023/12/27 07:32:46;;;;;;;;;;;;;;;17.65;61.06;101369.25;7393241;19;1918;-50
2023/12/27 07:35:14;;;;;;;;;;;;;;;17.65;61.20;101376.44;7393456;19;1327;-50
2023/12/27 07:37:46;;;;;;;;;;;;;;;17.92;60.74;101370.03;7395588;19;1542;-50
2023/12/27 07:40:15;;;;;;;;;;;;;;;18.05;59.75;101336.88;7389547;19;1449;-54
2023/12/27 07:42:43;;;;;;;;;;;;;;;18.00;60.44;101379.19;7391277;19;1491;-50
2023/12/27 07:45:12;;;;;;;;;;;;;;;17.91;60.61;101379.03;7393772;19;1819;-50
2023/12/27 07:47:40;;;;;;;;;;;;;;;17.77;60.77;101399.59;7394782;19;1231;-50
2023/12/27 07:50:09;;;;;;;;;;;;;;;17.76;60.81;101381.81;7395924;19;1147;-50
2023/12/27 07:52:38;;;;;;;;;;;;;;;17.72;60.91;101396.38;7395836;19;1860;-50
2023/12/27 07:55:10;;;;;;;;;;;;;;;17.66;61.00;101411.06;7396619;19;1745;-51
2023/12/27 07:57:40;;;;;;;;;;;;;;;17.63;61.35;101399.75;7397491;19;1751;-50
2023/12/27 08:00:10;;;;;;;;;;;;;;;17.59;61.48;101406.28;7395858;19;1765;-50
2023/12/27 08:02:38;;;;;;;;;;;;;;;17.56;61.49;101406.50;7397718;19;1271;-50
2023/12/27 08:05:07;;;;;;;;;;;;;;;17.52;61.58;101447.78;7395594;19;1480;-50
2023/12/27 08:07:35;;;;;;;;;;;;;;;17.46;61.83;101425.00;7397051;19;1322;-50
2023/12/27 08:10:03;;;;;;;;;;;;;;;17.51;61.65;101430.91;7396120;19;1686;-50
2023/12/27 08:12:34;;;;;;;;;;;;;;;17.68;61.47;101437.69;7395837;19;1848;-51
2023/12/27 08:15:03;;;;;;;;;;;;;;;17.95;60.60;101431.38;7395688;19;1729;-50
2023/12/27 08:17:31;;;;;;;;;;;;;;;17.94;60.82;101432.31;7395672;19;1636;-51
2023/12/27 08:19:59;;;;;;;;;;;;;;;17.89;60.55;101422.81;7393777;19;1410;-51
2023/12/27 08:22:28;;;;;;;;;;;;;;;17.93;60.52;101439.50;7394294;19;1578;-50
2023/12/27 08:24:56;;;;;;;;;;;;;;;17.99;60.43;101435.53;7394285;19;1122;-50
2023/12/27 08:27:24;;;;;;;;;;;;;;;17.86;60.61;101439.06;7392241;19;1530;-51
2023/12/27 08:29:55;;;;;;;;;;;;;;;17.86;60.61;101449.78;7392722;19;1311;-51
2023/12/27 08:32:24;;;;;;;;;;;;;;;17.85;60.59;101472.16;7391345;19;1838;-51
2023/12/27 08:34:52;;;;;;;;;;;;;;;17.79;60.88;101451.16;7391012;19;1656;-50
2023/12/27 08:37:20;;;;;;;;;;;;;;;17.81;60.76;101465.28;7392835;19;1270;-50
2023/12/27 08:39:49;;;;;;;;;;;;;;;17.78;60.74;101453.94;7392723;19;1589;-50
2023/12/27 08:42:17;;;;;;;;;;;;;;;17.79;60.70;101453.84;7377921;19;1267;-50
2023/12/27 08:44:45;;;;;;;;;;;;;;;17.92;60.54;101474.38;7394244;19;1064;-50
2023/12/27 08:47:16;;;;;;;;;;;;;;;17.82;60.79;101450.09;7390846;19;1251;-50
2023/12/27 08:49:45;;;;;;;;;;;;;;;17.83;60.74;101482.13;7393259;19;1374;-51
2023/12/27 08:52:13;;;;;;;;;;;;;;;17.80;60.85;101468.06;7390595;19;2317;-50
2023/12/27 08:54:42;;;;;;;;;;;;;;;17.78;60.87;101478.03;7392917;19;1393;-50
2023/12/27 08:57:10;;;;;;;;;;;;;;;17.73;60.72;101478.38;7392528;19;1191;-50
2023/12/27 08:59:40;;;;;;;;;;;;;;;17.98;60.80;101471.25;7391043;19;1310;-50
2023/12/27 09:02:08;;;;;;;;;;;;;;;18.26;60.10;101473.66;7389751;19;1537;-50
2023/12/27 09:04:39;;;;;;;;;;;;;;;18.24;59.76;101483.59;7389591;19;1436;-50
2023/12/27 09:07:07;;;;;;;;;;;;;;;18.14;60.09;101477.19;7391094;19;1495;-50
2023/12/27 09:09:36;;;;;;;;;;;;;;;18.14;60.14;101474.53;7391283;19;1568;-50
2023/12/27 09:12:04;;;;;;;;;;;;;;;18.09;60.35;101482.06;7389029;19;1840;-50
2023/12/27 09:14:32;;;;;;;;;;;;;;;18.04;60.24;101460.94;7390029;19;1433;-50
2023/12/27 09:17:01;;;;;;;;;;;;;;;18.04;60.46;101465.47;7390890;19;1766;-50
2023/12/27 09:19:29;;;;;;;;;;;;;;;18.11;60.27;101460.53;7389966;19;1512;-50
2023/12/27 09:22:01;;;;;;;;;;;;;;;18.13;60.04;101471.97;7391056;19;1500;-50
2023/12/27 09:24:29;;;;;;;;;;;;;;;18.15;59.91;101454.84;7392799;19;1748;-50
2023/12/27 09:26:58;;;;;;;;;;;;;;;18.18;59.81;101457.25;7390383;19;1820;-50
2023/12/27 09:29:26;;;;;;;;;;;;;;;18.15;59.99;101467.38;7391601;19;1725;-50
2023/12/27 09:31:55;;;;;;;;;;;;;;;18.12;60.10;101468.44;7389950;19;1871;-50
2023/12/27 09:34:23;;;;;;;;;;;;;;;18.02;60.40;101473.59;7393024;19;1094;-50
2023/12/27 09:36:51;;;;;;;;;;;;;;;18.15;59.99;101481.59;7391335;19;1433;-50
2023/12/27 09:39:22;;;;;;;;;;;;;;;18.14;59.87;101461.13;7391950;19;1729;-50
2023/12/27 09:41:51;;;;;;;;;;;;;;;18.11;60.18;101445.31;7374245;19;1590;-50
2023/12/27 09:44:21;;;;;;;;;;;;;;;18.11;60.33;101461.38;7391747;19;1039;-50
2023/12/27 09:46:49;;;;;;;;;;;;;;;18.10;60.26;101470.38;7398104;19;1062;-50
2023/12/27 09:49:18;;;;;;;;;;;;;;;18.11;60.18;101460.53;7399255;19;1914;-50
2023/12/27 09:51:47;;;;;;;;;;;;;;;18.07;60.24;101482.16;7397364;19;1852;-50
2023/12/27 09:54:16;;;;;;;;;;;;;;;18.04;60.09;101462.78;7397991;19;1552;-50
2023/12/27 09:56:47;;;;;;;;;;;;;;;18.07;60.33;101454.53;7398463;19;1469;-50
2023/12/27 09:59:24;;;;;;;;;;;;;;;18.01;60.62;101471.91;7398670;19;1720;-50
2023/12/27 10:01:53;;;;;;;;;;;;;;;17.97;60.60;101458.88;7399117;19;1062;-50
2023/12/27 10:04:25;;;;;;;;;;;;;;;17.94;60.56;101464.44;7398760;19;1796;-50
2023/12/27 10:06:57;;;;;;;;;;;;;;;17.95;60.58;101460.81;7397828;19;1908;-50
2023/12/27 10:09:26;;;;;;;;;;;;;;;17.95;60.75;101450.94;7398844;19;1779;-51
2023/12/27 10:11:57;;;;;;;;;;;;;;;18.00;60.50;101439.91;7398430;19;1843;-51
2023/12/27 10:14:27;;;;;;;;;;;;;;;18.21;60.14;101440.16;7398655;19;1487;-50
2023/12/27 10:16:55;;;;;;;;;;;;;;;18.18;60.11;101462.63;7398969;19;935;-51
2023/12/27 10:19:40;;;;;;;;;;;;;;;18.20;60.04;101454.47;7398720;19;1839;-50
2023/12/27 10:22:08;;;;;;;;;;;;;;;18.17;59.91;101450.22;7398413;19;945;-50
2023/12/27 10:24:37;;;;;;;;;;;;;;;18.11;60.37;101472.09;7397482;19;1875;-50
2023/12/27 10:27:08;;;;;;;;;;;;;;;18.02;60.44;101464.72;7397666;19;1832;-50
2023/12/27 10:29:38;;;;;;;;;;;;;;;18.01;60.59;101460.34;7394036;19;1809;-50
2023/12/27 10:32:07;;;;;;;;;;;;;;;18.01;60.71;101465.69;7397314;19;1843;-50
2023/12/27 10:34:35;;;;;;;;;;;;;;;18.07;60.33;101454.53;7398081;19;1701;-51
2023/12/27 10:37:07;;;;;;;;;;;;;;;18.06;60.52;101475.09;7397713;19;1478;-51
2023/12/27 10:39:35;;;;;;;;;;;;;;;18.13;60.28;101450.56;7398019;19;1844;-51
2023/12/27 10:42:03;;;;;;;;;;;;;;;18.19;60.04;101459.00;7379990;19;1247;-50
2023/12/27 10:44:35;;;;;;;;;;;;;;;18.09;60.33;101441.91;7397345;19;1678;-51
2023/12/27 10:47:06;;;;;;;;;;;;;;;18.08;60.49;101441.06;7396702;19;1526;-51
2023/12/27 10:49:35;;;;;;;;;;;;;;;18.08;60.20;101440.19;7398425;19;1014;-50
2023/12/27 10:52:04;;;;;;;;;;;;;;;18.11;60.46;101455.19;7395616;19;1851;-51
2023/12/27 10:54:32;;;;;;;;;;;;;;;18.14;60.14;101457.63;7396375;19;1788;-51
2023/12/27 10:57:03;;;;;;;;;;;;;;;18.20;60.11;101449.97;7393521;19;1468;-51
2023/12/27 10:59:31;;;;;;;;;;;;;;;18.24;59.89;101446.13;7396480;19;1318;-50
2023/12/27 11:02:06;;;;;;;;;;;;;;;18.27;59.97;101451.25;7396492;19;1232;-51
2023/12/27 11:04:35;;;;;;;;;;;;;;;18.19;60.07;101437.56;7396596;19;1780;-51
2023/12/27 11:07:05;;;;;;;;;;;;;;;18.22;60.09;101442.72;7395271;19;1358;-51
2023/12/27 11:09:34;;;;;;;;;;;;;;;18.21;60.01;101434.78;7395647;19;1669;-50
2023/12/27 11:12:06;;;;;;;;;;;;;;;18.20;59.91;101433.91;7392520;19;1851;-51
2023/12/27 11:14:35;;;;;;;;;;;;;;;18.17;60.07;101439.50;7396431;19;1713;-50
2023/12/27 11:17:06;;;;;;;;;;;;;;;18.07;60.36;101433.13;7396829;19;1749;-50
2023/12/27 11:19:35;;;;;;;;;;;;;;;18.04;60.39;101428.84;7396984;19;1194;-50
2023/12/27 11:22:03;;;;;;;;;;;;;;;17.98;60.74;101437.31;7396373;19;1469;-51
2023/12/27 11:24:32;;;;;;;;;;;;;;;17.91;60.73;101443.25;7395067;19;1504;-50
2023/12/27 11:27:03;;;;;;;;;;;;;;;17.91;60.76;101440.59;7393349;19;1492;-51
2023/12/27 11:29:32;;;;;;;;;;;;;;;17.95;60.69;101431.38;7396354;19;1840;-51
2023/12/27 11:32:01;;;;;;;;;;;;;;;18.02;60.46;101451.34;7396289;19;1751;-50
2023/12/27 11:34:32;;;;;;;;;;;;;;;18.11;59.94;101434.63;7394704;19;1852;-50
2023/12/27 11:37:02;;;;;;;;;;;;;;;18.07;60.30;101427.78;7395836;19;1047;-50
2023/12/27 11:39:31;;;;;;;;;;;;;;;18.12;59.81;101430.94;7395491;19;1878;-50
2023/12/27 11:42:01;;;;;;;;;;;;;;;18.11;60.18;101436.44;7377093;19;1244;-51
2023/12/27 11:44:39;;;;;;;;;;;;;;;18.10;60.01;101430.22;7392600;19;1761;-50
2023/12/27 11:47:08;;;;;;;;;;;;;;;18.07;60.43;101446.50;7395909;19;1250;-50
2023/12/27 11:49:39;;;;;;;;;;;;;;;18.06;60.34;101444.78;7395654;19;942;-51
2023/12/27 11:52:08;;;;;;;;;;;;;;;18.05;60.46;101445.78;7394212;19;1615;-51
2023/12/27 11:54:36;;;;;;;;;;;;;;;18.03;60.26;101458.41;7392190;19;1898;-51
2023/12/27 11:57:05;;;;;;;;;;;;;;;18.02;60.17;101440.63;7394651;19;1832;-51
2023/12/27 11:59:33;;;;;;;;;;;;;;;18.02;60.36;101454.00;7394009;19;1437;-51
2023/12/27 12:02:02;;;;;;;;;;;;;;;17.97;60.27;101458.88;7394427;19;1535;-51
2023/12/27 12:04:49;;;;;;;;;;;;;;;17.97;60.46;101462.38;7393857;19;1385;-51
2023/12/27 12:07:32;;;;;;;;;;;;;;;18.07;60.27;101471.44;7394330;19;1822;-51
2023/12/27 12:10:03;;;;;;;;;;;;;;;18.00;60.33;101470.19;7393511;19;1681;-51
2023/12/27 12:12:31;;;;;;;;;;;;;;;18.02;60.22;101476.28;7393352;19;1859;-51
2023/12/27 12:15:00;;;;;;;;;;;;;;;17.99;60.14;101473.00;7394373;19;1783;-51
2023/12/27 12:17:30;;;;;;;;;;;;;;;18.04;60.26;101478.84;7393761;19;1398;-50
2023/12/27 12:19:59;;;;;;;;;;;;;;;18.04;60.50;101481.53;7394157;19;1327;-50
2023/12/27 12:22:29;;;;;;;;;;;;;;;17.99;60.42;101478.34;7394203;19;1676;-50
2023/12/27 12:25:07;;;;;;;;;;;;;;;17.91;60.59;101486.06;7394619;19;1113;-50
2023/12/27 12:27:38;;;;;;;;;;;;;;;17.91;60.67;101484.25;7394483;19;995;-51
2023/12/27 12:30:07;;;;;;;;;;;;;;;17.85;60.98;101492.72;7391147;19;1946;-50
2023/12/27 12:32:40;;;;;;;;;;;;;;;17.88;60.86;101487.97;7391641;19;1860;-50
2023/12/27 12:35:09;;;;;;;;;;;;;;;17.91;60.92;101508.31;7393332;19;1326;-51
2023/12/27 12:37:39;;;;;;;;;;;;;;;18.25;60.21;101477.28;7392747;19;1356;-50
2023/12/27 12:40:14;;;;;;;;;;;;;;;18.27;59.97;101472.66;7393509;19;1023;-50
2023/12/27 12:42:42;;;;;;;;;;;;;;;18.12;60.17;101484.47;7377413;19;1526;-50
2023/12/27 12:45:11;;;;;;;;;;;;;;;17.99;60.46;101473.00;7392833;19;1737;-50
2023/12/27 12:47:40;;;;;;;;;;;;;;;17.94;60.46;101484.00;7392444;19;1152;-51
2023/12/27 12:50:09;;;;;;;;;;;;;;;17.95;60.44;101491.09;7392949;19;1771;-51
2023/12/27 12:52:38;;;;;;;;;;;;;;;17.88;60.66;101471.91;7391308;19;1855;-51
2023/12/27 12:55:07;;;;;;;;;;;;;;;17.81;60.83;101484.00;7392837;19;1779;-51
2023/12/27 12:57:38;;;;;;;;;;;;;;;17.82;60.76;101488.38;7393318;19;1137;-51